Time;durP1;ratioP1;P1;durP2;ratioP2;P2;SDS_P1;SDS_P2;PMS_P1;PMS_P2;Temp;Humidity;BMP_temperature;BMP_pressure;BME280_temperature;BME280_humidity;BME280_pressure;Samples;Min_cycle;Max_cycle;Signal;HPM_P1;HPM_P2
2021/05/19 00:02:00;;;;;;;1.52;1.25;;;;;;;;;;5078891;28;20474;-68
2021/05/19 00:04:26;;;;;;;1.30;1.20;;;;;;;;;;5089733;28;20185;-69
2021/05/19 00:06:52;;;;;;;8.27;1.25;;;;;;;;;;5081594;28;20183;-69
2021/05/19 00:09:18;;;;;;;1.75;1.25;;;;;;;;;;5087351;28;20497;-69
2021/05/19 00:11:45;;;;;;;1.08;1.02;;;;;;;;;;5078866;28;20028;-69
2021/05/19 00:14:11;;;;;;;1.92;1.15;;;;;;;;;;5078619;28;20033;-69
2021/05/19 00:16:37;;;;;;;1.43;1.17;;;;;;;;;;5078742;28;20052;-69
2021/05/19 00:19:04;;;;;;;1.60;1.30;;;;;;;;;;5084586;28;20293;-67
2021/05/19 00:21:31;;;;;;;2.13;0.98;;;;;;;;;;5078941;28;20024;-67
2021/05/19 00:23:57;;;;;;;1.75;1.17;;;;;;;;;;5075157;28;20029;-69
2021/05/19 00:26:24;;;;;;;2.78;1.23;;;;;;;;;;5079021;28;20403;-68
2021/05/19 00:28:51;;;;;;;0.90;0.90;;;;;;;;;;5080989;28;20025;-70
2021/05/19 00:31:20;;;;;;;;;;;;;;;;;;5074797;28;20078;-69
2021/05/19 00:33:46;;;;;;;0.95;0.80;;;;;;;;;;5077898;28;19916;-69
2021/05/19 00:36:12;;;;;;;1.17;1.08;;;;;;;;;;5085643;28;20410;-69
2021/05/19 00:38:38;;;;;;;1.63;1.05;;;;;;;;;;5079200;28;20036;-68
2021/05/19 00:41:06;;;;;;;2.05;1.10;;;;;;;;;;5074996;28;20028;-68
2021/05/19 00:43:32;;;;;;;1.55;0.95;;;;;;;;;;5073319;28;20040;-69
2021/05/19 00:45:58;;;;;;;0.90;0.90;;;;;;;;;;5083324;28;20044;-68
2021/05/19 00:48:24;;;;;;;1.48;1.10;;;;;;;;;;5080688;28;20413;-69
2021/05/19 00:50:50;;;;;;;1.20;1.10;;;;;;;;;;5088547;28;20034;-69
2021/05/19 00:53:16;;;;;;;1.02;0.90;;;;;;;;;;5089864;28;20032;-69
2021/05/19 00:55:42;;;;;;;1.98;1.08;;;;;;;;;;5070624;28;20041;-68
2021/05/19 00:58:08;;;;;;;1.15;1.15;;;;;;;;;;5080383;28;20102;-68
2021/05/19 01:00:35;;;;;;;2.20;1.13;;;;;;;;;;5085222;28;20529;-69
2021/05/19 01:03:02;;;;;;;2.90;1.30;;;;;;;;;;5080878;28;20024;-68
2021/05/19 01:05:43;;;;;;;3.15;1.27;;;;;;;;;;5080708;28;20031;-68
2021/05/19 01:10:54;;;;;;;2.22;1.05;;;;;;;;;;5088206;28;20098;-69
2021/05/19 01:13:20;;;;;;;1.15;1.05;;;;;;;;;;5081235;28;20040;-69
2021/05/19 01:15:46;;;;;;;1.10;1.00;;;;;;;;;;5072835;28;20050;-69
2021/05/19 01:18:13;;;;;;;1.33;1.10;;;;;;;;;;5084107;28;20525;-69
2021/05/19 01:20:39;;;;;;;0.90;0.90;;;;;;;;;;5090872;28;20020;-69
2021/05/19 01:23:06;;;;;;;2.90;0.90;;;;;;;;;;5080669;28;20050;-69
2021/05/19 01:25:32;;;;;;;1.10;1.10;;;;;;;;;;5081947;28;20075;-69
2021/05/19 01:27:59;;;;;;;2.53;1.00;;;;;;;;;;5076240;28;20062;-69
2021/05/19 01:30:26;;;;;;;1.10;1.10;;;;;;;;;;5082590;28;20025;-69
2021/05/19 01:32:52;;;;;;;5.43;1.00;;;;;;;;;;5075950;28;20040;-68
2021/05/19 01:35:18;;;;;;;1.75;1.13;;;;;;;;;;5084316;28;20031;-68
2021/05/19 01:37:45;;;;;;;3.13;1.45;;;;;;;;;;5084488;28;20071;-67
2021/05/19 01:40:13;;;;;;;1.17;1.00;;;;;;;;;;5083385;28;20493;-68
2021/05/19 01:42:39;;;;;;;0.70;0.70;;;;;;;;;;5078023;28;20058;-69
2021/05/19 01:45:05;;;;;;;1.00;0.93;;;;;;;;;;5083794;28;20082;-68
2021/05/19 01:47:40;;;;;;;1.15;1.00;;;;;;;;;;5087824;28;20048;-68
2021/05/19 01:50:07;;;;;;;1.05;1.02;;;;;;;;;;5080367;28;20068;-68
2021/05/19 01:52:34;;;;;;;0.70;0.70;;;;;;;;;;5081292;28;20028;-69
2021/05/19 01:55:01;;;;;;;1.10;1.00;;;;;;;;;;5087259;28;20036;-68
2021/05/19 01:57:27;;;;;;;2.55;1.00;;;;;;;;;;5076295;28;20039;-68
2021/05/19 01:59:53;;;;;;;1.17;0.93;;;;;;;;;;5087198;28;20032;-67
2021/05/19 02:02:22;;;;;;;0.95;0.95;;;;;;;;;;5084819;28;20024;-69
2021/05/19 02:04:48;;;;;;;0.95;0.82;;;;;;;;;;5072383;28;20449;-68
2021/05/19 02:07:14;;;;;;;1.60;1.00;;;;;;;;;;5074357;28;20025;-68
2021/05/19 02:09:40;;;;;;;0.95;0.90;;;;;;;;;;5083093;28;20047;-69
2021/05/19 02:12:06;;;;;;;1.27;0.93;;;;;;;;;;5080703;28;20103;-68
2021/05/19 02:14:32;;;;;;;2.10;0.95;;;;;;;;;;5073049;28;20545;-69
2021/05/19 02:16:58;;;;;;;3.75;0.90;;;;;;;;;;5079036;28;20024;-69
2021/05/19 02:19:24;;;;;;;0.80;0.77;;;;;;;;;;5078635;28;20024;-68
2021/05/19 02:21:50;;;;;;;1.00;1.00;;;;;;;;;;5084425;28;20028;-68
2021/05/19 02:24:17;;;;;;;0.98;0.98;;;;;;;;;;5073615;28;20467;-69
2021/05/19 02:26:44;;;;;;;0.90;0.77;;;;;;;;;;5075663;28;20492;-67
2021/05/19 02:29:10;;;;;;;1.90;0.80;;;;;;;;;;5078535;28;20039;-69
2021/05/19 02:31:36;;;;;;;0.77;0.77;;;;;;;;;;5071973;28;20344;-68
2021/05/19 02:34:03;;;;;;;0.82;0.80;;;;;;;;;;5074995;28;20040;-67
2021/05/19 02:36:29;;;;;;;2.42;1.02;;;;;;;;;;5083516;28;20127;-68
2021/05/19 02:38:55;;;;;;;1.23;0.88;;;;;;;;;;5084655;28;20107;-68
2021/05/19 02:41:21;;;;;;;0.93;0.93;;;;;;;;;;5083384;28;20036;-68
2021/05/19 02:43:47;;;;;;;1.25;1.13;;;;;;;;;;5075798;28;20047;-67
2021/05/19 02:46:13;;;;;;;1.17;1.08;;;;;;;;;;5081490;28;20425;-68
2021/05/19 02:48:39;;;;;;;1.33;0.98;;;;;;;;;;5085739;28;20044;-68
2021/05/19 02:51:05;;;;;;;2.10;0.93;;;;;;;;;;5079534;28;20036;-68
2021/05/19 02:53:32;;;;;;;1.10;0.95;;;;;;;;;;5073258;28;20033;-68
2021/05/19 02:55:58;;;;;;;1.27;0.95;;;;;;;;;;5071751;28;20025;-68
2021/05/19 02:58:23;;;;;;;1.90;0.98;;;;;;;;;;5073976;28;20063;-68
2021/05/19 03:00:49;;;;;;;0.85;0.85;;;;;;;;;;5077382;28;20024;-69
2021/05/19 03:03:15;;;;;;;1.00;1.00;;;;;;;;;;5078810;28;20025;-70
2021/05/19 03:05:42;;;;;;;0.75;0.75;;;;;;;;;;5083070;28;20024;-70
2021/05/19 03:08:08;;;;;;;1.02;0.95;;;;;;;;;;5091890;28;20020;-69
2021/05/19 03:10:34;;;;;;;1.17;0.93;;;;;;;;;;5082687;28;20059;-70
2021/05/19 03:13:01;;;;;;;0.90;0.90;;;;;;;;;;5082107;28;20496;-70
2021/05/19 03:15:27;;;;;;;0.70;0.70;;;;;;;;;;5079336;28;20374;-70
2021/05/19 03:17:53;;;;;;;2.30;0.85;;;;;;;;;;5071641;28;20062;-70
2021/05/19 03:20:19;;;;;;;2.20;0.88;;;;;;;;;;5076465;28;20123;-69
2021/05/19 03:22:45;;;;;;;1.00;1.00;;;;;;;;;;5081294;28;20044;-70
2021/05/19 03:25:11;;;;;;;1.15;0.77;;;;;;;;;;5084743;28;20029;-70
2021/05/19 03:27:37;;;;;;;0.77;0.77;;;;;;;;;;5072450;28;20054;-70
2021/05/19 03:30:05;;;;;;;1.00;1.00;;;;;;;;;;5071318;28;20032;-68
2021/05/19 03:32:31;;;;;;;1.05;1.02;;;;;;;;;;5080930;28;20048;-69
2021/05/19 03:34:57;;;;;;;1.70;1.13;;;;;;;;;;5082124;28;20024;-70
2021/05/19 03:37:23;;;;;;;2.50;0.88;;;;;;;;;;5074797;28;20036;-69
2021/05/19 03:39:49;;;;;;;1.73;0.85;;;;;;;;;;5072039;28;20043;-70
2021/05/19 03:42:15;;;;;;;1.27;0.85;;;;;;;;;;5080953;28;20020;-69
2021/05/19 03:44:41;;;;;;;1.70;0.90;;;;;;;;;;5090160;28;20040;-69
2021/05/19 03:47:08;;;;;;;1.00;1.00;;;;;;;;;;5074060;28;20146;-70
2021/05/19 03:49:37;;;;;;;1.92;0.90;;;;;;;;;;5086478;28;20097;-70
2021/05/19 03:52:04;;;;;;;1.73;0.80;;;;;;;;;;5072409;28;20024;-69
2021/05/19 03:54:33;;;;;;;1.38;1.10;;;;;;;;;;5082290;28;20052;-70
2021/05/19 03:56:59;;;;;;;0.80;0.80;;;;;;;;;;5080466;28;20389;-70
2021/05/19 03:59:25;;;;;;;1.73;0.65;;;;;;;;;;5071157;28;20036;-70
2021/05/19 04:01:51;;;;;;;0.93;0.93;;;;;;;;;;5079544;28;20478;-70
2021/05/19 04:04:17;;;;;;;1.20;0.80;;;;;;;;;;5072869;28;20107;-69
2021/05/19 04:06:43;;;;;;;0.75;0.75;;;;;;;;;;5086002;28;20051;-70
2021/05/19 04:09:11;;;;;;;0.88;0.88;;;;;;;;;;5070307;28;20024;-70
2021/05/19 04:11:37;;;;;;;1.48;1.05;;;;;;;;;;5083340;28;20020;-70
2021/05/19 04:14:03;;;;;;;0.90;0.90;;;;;;;;;;5073434;28;20054;-69
2021/05/19 04:16:29;;;;;;;1.10;0.85;;;;;;;;;;5079033;28;20058;-68
2021/05/19 04:18:55;;;;;;;0.68;0.68;;;;;;;;;;5084739;28;20059;-69
2021/05/19 04:21:21;;;;;;;5.90;1.20;;;;;;;;;;5080455;28;20028;-70
2021/05/19 04:23:48;;;;;;;2.13;0.95;;;;;;;;;;5079733;28;20077;-69
2021/05/19 04:26:14;;;;;;;1.45;1.10;;;;;;;;;;5078145;28;20067;-69
2021/05/19 04:28:40;;;;;;;4.63;0.90;;;;;;;;;;5078815;28;20059;-70
2021/05/19 04:31:07;;;;;;;8.50;1.35;;;;;;;;;;5080952;28;20070;-71
2021/05/19 04:33:33;;;;;;;2.50;1.00;;;;;;;;;;5082606;28;20050;-71
2021/05/19 04:35:59;;;;;;;3.75;1.20;;;;;;;;;;5076483;28;20040;-70
2021/05/19 04:38:25;;;;;;;2.72;0.90;;;;;;;;;;5078763;28;20527;-69
2021/05/19 04:40:51;;;;;;;2.72;1.13;;;;;;;;;;5073259;28;20032;-69
2021/05/19 04:43:18;;;;;;;2.85;0.88;;;;;;;;;;5074184;28;20021;-70
2021/05/19 04:45:44;;;;;;;1.90;1.25;;;;;;;;;;5074166;28;20037;-69
2021/05/19 04:48:10;;;;;;;2.30;1.10;;;;;;;;;;5076452;28;20043;-69
2021/05/19 04:50:38;;;;;;;1.35;0.88;;;;;;;;;;5077805;28;20028;-70
2021/05/19 04:53:04;;;;;;;0.73;0.73;;;;;;;;;;5089199;28;20035;-69
2021/05/19 04:55:31;;;;;;;13.15;1.35;;;;;;;;;;5087112;28;20052;-70
2021/05/19 04:57:58;;;;;;;5.85;1.40;;;;;;;;;;5071128;28;20066;-70
2021/05/19 05:00:24;;;;;;;2.67;1.33;;;;;;;;;;5073787;28;20106;-67
2021/05/19 05:02:50;;;;;;;4.38;1.20;;;;;;;;;;5079209;28;20119;-68
2021/05/19 05:05:16;;;;;;;4.72;1.40;;;;;;;;;;5078021;28;20391;-69
2021/05/19 05:07:42;;;;;;;8.73;0.95;;;;;;;;;;5075755;28;20047;-69
2021/05/19 05:10:09;;;;;;;2.78;1.27;;;;;;;;;;5075254;28;20032;-68
2021/05/19 05:12:35;;;;;;;;;;;;;;;;;;5083212;28;20118;-66
2021/05/19 05:15:01;;;;;;;1.35;0.40;;;;;;;;;;5081798;28;19987;-67
2021/05/19 05:17:27;;;;;;;1.48;0.90;;;;;;;;;;5075734;28;20075;-68
2021/05/19 05:19:53;;;;;;;1.80;0.90;;;;;;;;;;5080087;28;20534;-69
2021/05/19 05:22:19;;;;;;;0.60;0.60;;;;;;;;;;5070922;28;20058;-70
2021/05/19 05:24:45;;;;;;;0.70;0.70;;;;;;;;;;5074381;28;20065;-68
2021/05/19 05:27:11;;;;;;;0.60;0.60;;;;;;;;;;5073708;28;20031;-70
2021/05/19 05:29:39;;;;;;;0.80;0.80;;;;;;;;;;5072714;28;20051;-68
2021/05/19 05:32:06;;;;;;;0.80;0.80;;;;;;;;;;5077201;28;20033;-70
2021/05/19 05:34:32;;;;;;;0.80;0.80;;;;;;;;;;5079150;28;20033;-69
2021/05/19 05:36:58;;;;;;;2.60;0.80;;;;;;;;;;5076617;28;20051;-70
2021/05/19 05:39:24;;;;;;;0.90;0.75;;;;;;;;;;5069716;28;20039;-71
2021/05/19 05:41:50;;;;;;;0.98;0.95;;;;;;;;;;5080809;28;20046;-70
2021/05/19 05:44:16;;;;;;;2.08;0.70;;;;;;;;;;5071039;28;20106;-70
2021/05/19 05:46:43;;;;;;;0.70;0.50;;;;;;;;;;5065695;28;20587;-70
2021/05/19 05:49:09;;;;;;;1.58;0.88;;;;;;;;;;5064274;28;20098;-70
2021/05/19 05:51:35;;;;;;;2.38;0.70;;;;;;;;;;5065921;28;20370;-70
2021/05/19 05:54:01;;;;;;;1.13;1.00;;;;;;;;;;5073412;28;20042;-69
2021/05/19 05:56:27;;;;;;;1.27;0.70;;;;;;;;;;5069422;28;20424;-71
2021/05/19 05:58:54;;;;;;;2.47;1.00;;;;;;;;;;5069400;28;20029;-69
2021/05/19 06:01:19;;;;;;;1.50;0.80;;;;;;;;;;5072488;28;20054;-71
2021/05/19 06:03:45;;;;;;;1.20;0.77;;;;;;;;;;5076717;28;20020;-71
2021/05/19 06:06:11;;;;;;;2.88;0.98;;;;;;;;;;5071050;28;20028;-71
2021/05/19 06:08:37;;;;;;;2.67;1.10;;;;;;;;;;5074421;28;20115;-69
2021/05/19 06:11:05;;;;;;;2.03;1.23;;;;;;;;;;5076189;28;20465;-70
2021/05/19 06:13:35;;;;;;;4.10;1.45;;;;;;;;;;5071928;28;20032;-70
2021/05/19 06:16:01;;;;;;;2.80;1.38;;;;;;;;;;5077628;28;20031;-70
2021/05/19 06:18:27;;;;;;;3.60;1.27;;;;;;;;;;5070231;28;21330;-71
2021/05/19 06:20:54;;;;;;;2.72;1.40;;;;;;;;;;5076354;28;20036;-70
2021/05/19 06:23:20;;;;;;;2.28;1.10;;;;;;;;;;5071264;28;20039;-70
2021/05/19 06:25:46;;;;;;;1.50;1.20;;;;;;;;;;5071546;28;20032;-71
2021/05/19 06:28:12;;;;;;;2.67;1.10;;;;;;;;;;5073934;28;20387;-69
2021/05/19 06:30:38;;;;;;;2.42;1.25;;;;;;;;;;5076452;28;20059;-71
2021/05/19 06:33:04;;;;;;;1.10;0.95;;;;;;;;;;5071430;28;20059;-69
2021/05/19 06:35:30;;;;;;;2.92;1.10;;;;;;;;;;5070870;28;20035;-70
2021/05/19 06:37:56;;;;;;;1.98;1.20;;;;;;;;;;5069742;28;20028;-69
2021/05/19 06:40:22;;;;;;;5.32;1.50;;;;;;;;;;5065899;28;20763;-69
2021/05/19 06:42:49;;;;;;;2.03;1.33;;;;;;;;;;5078866;28;20085;-69
2021/05/19 06:45:16;;;;;;;3.17;1.50;;;;;;;;;;5076131;28;20560;-69
2021/05/19 06:47:42;;;;;;;3.80;1.50;;;;;;;;;;5071415;28;20051;-69
2021/05/19 06:50:08;;;;;;;5.22;1.75;;;;;;;;;;5067622;28;20028;-69
2021/05/19 06:52:35;;;;;;;5.65;2.00;;;;;;;;;;5068048;28;20040;-70
2021/05/19 06:55:02;;;;;;;7.85;1.88;;;;;;;;;;5070315;28;20477;-69
2021/05/19 06:57:28;;;;;;;11.30;1.95;;;;;;;;;;5077246;28;20035;-69
2021/05/19 06:59:54;;;;;;;3.47;1.48;;;;;;;;;;5074236;28;20024;-70
2021/05/19 07:02:20;;;;;;;2.55;1.30;;;;;;;;;;5070710;28;20039;-70
2021/05/19 07:04:46;;;;;;;4.30;3.17;;;;;;;;;;5073957;28;20036;-69
2021/05/19 07:07:13;;;;;;;5.25;4.70;;;;;;;;;;5076027;28;20050;-69
2021/05/19 07:09:39;;;;;;;5.65;5.05;;;;;;;;;;5071746;28;20035;-69
2021/05/19 07:12:05;;;;;;;6.82;5.13;;;;;;;;;;5068231;28;20028;-70
2021/05/19 07:14:34;;;;;;;4.50;2.55;;;;;;;;;;5072538;28;20150;-69
2021/05/19 07:17:00;;;;;;;1.02;0.93;;;;;;;;;;5076701;28;20029;-70
2021/05/19 07:19:27;;;;;;;1.17;1.08;;;;;;;;;;5078138;28;20686;-68
2021/05/19 07:21:53;;;;;;;1.33;1.00;;;;;;;;;;5071252;28;20039;-70
2021/05/19 07:24:19;;;;;;;0.68;0.65;;;;;;;;;;5074536;28;20047;-68
2021/05/19 07:26:46;;;;;;;1.75;0.80;;;;;;;;;;5072213;28;20041;-69
2021/05/19 07:29:12;;;;;;;0.70;0.70;;;;;;;;;;5075708;28;20032;-68
2021/05/19 07:31:40;;;;;;;1.67;0.93;;;;;;;;;;5076123;28;20040;-66
2021/05/19 07:34:06;;;;;;;0.32;0.32;;;;;;;;;;5075943;28;20649;-67
2021/05/19 07:36:32;;;;;;;0.85;0.63;;;;;;;;;;5079856;28;20546;-67
2021/05/19 07:38:58;;;;;;;1.08;0.85;;;;;;;;;;5085639;28;20068;-67
2021/05/19 07:41:26;;;;;;;2.63;0.80;;;;;;;;;;5073020;28;20028;-67
2021/05/19 07:43:52;;;;;;;1.27;0.73;;;;;;;;;;5075508;28;20595;-68
2021/05/19 07:46:18;;;;;;;0.50;0.50;;;;;;;;;;5075540;28;20131;-68
2021/05/19 07:48:44;;;;;;;0.80;0.63;;;;;;;;;;5073628;28;20413;-67
2021/05/19 07:51:11;;;;;;;1.02;0.60;;;;;;;;;;5080827;28;20031;-66
2021/05/19 07:53:37;;;;;;;1.17;1.02;;;;;;;;;;5075200;28;20079;-68
2021/05/19 07:56:09;;;;;;;1.30;0.93;;;;;;;;;;5077252;28;20575;-68
2021/05/19 07:58:39;;;;;;;1.75;0.95;;;;;;;;;;5066941;28;20047;-67
2021/05/19 08:03:35;;;;;;;0.88;0.70;;;;;;;;;;5069840;28;20834;-69
2021/05/19 08:06:01;;;;;;;0.43;0.43;;;;;;;;;;5069796;28;20020;-68
2021/05/19 08:08:27;;;;;;;1.75;0.28;;;;;;;;;;5077210;28;20063;-68
2021/05/19 08:10:53;;;;;;;0.52;0.40;;;;;;;;;;5067584;28;20028;-68
2021/05/19 08:13:19;;;;;;;2.25;0.60;;;;;;;;;;5066520;28;20452;-67
2021/05/19 08:15:45;;;;;;;0.25;0.20;;;;;;;;;;5072736;28;20071;-68
2021/05/19 08:18:12;;;;;;;0.22;0.22;;;;;;;;;;5073405;28;20039;-67
2021/05/19 08:20:38;;;;;;;0.38;0.20;;;;;;;;;;5071128;28;20036;-68
2021/05/19 08:23:04;;;;;;;0.25;0.25;;;;;;;;;;5069320;28;20017;-68
2021/05/19 08:25:30;;;;;;;0.40;0.40;;;;;;;;;;5081093;28;20502;-66
2021/05/19 08:27:57;;;;;;;0.20;0.20;;;;;;;;;;5072626;28;20120;-68
2021/05/19 08:30:23;;;;;;;0.47;0.47;;;;;;;;;;5075815;28;20039;-67
2021/05/19 08:32:49;;;;;;;0.30;0.30;;;;;;;;;;5073394;28;20036;-67
2021/05/19 08:35:15;;;;;;;0.75;0.60;;;;;;;;;;5066070;28;20041;-67
2021/05/19 08:37:41;;;;;;;2.28;0.60;;;;;;;;;;5070751;28;20034;-68
2021/05/19 08:40:07;;;;;;;0.47;0.47;;;;;;;;;;5071678;28;20040;-68
2021/05/19 08:42:34;;;;;;;0.60;0.60;;;;;;;;;;5070341;28;20041;-68
2021/05/19 08:45:00;;;;;;;1.65;0.65;;;;;;;;;;5067791;28;20054;-68
2021/05/19 08:47:26;;;;;;;1.70;1.00;;;;;;;;;;5070432;28;20052;-67
2021/05/19 08:49:53;;;;;;;2.07;0.67;;;;;;;;;;5075328;28;20032;-67
2021/05/19 08:52:19;;;;;;;0.52;0.47;;;;;;;;;;5076291;28;20024;-67
2021/05/19 08:54:45;;;;;;;1.10;0.57;;;;;;;;;;5087795;28;20101;-67
2021/05/19 08:57:12;;;;;;;1.00;0.45;;;;;;;;;;5074238;28;20032;-68
2021/05/19 08:59:39;;;;;;;0.57;0.57;;;;;;;;;;5073713;28;20104;-68
2021/05/19 09:02:17;;;;;;;0.43;0.40;;;;;;;;;;5072375;28;20406;-67
2021/05/19 09:04:44;;;;;;;2.92;0.60;;;;;;;;;;5082200;28;20163;-67
2021/05/19 09:07:18;;;;;;;0.40;0.40;;;;;;;;;;5078615;28;20031;-68
2021/05/19 09:09:44;;;;;;;0.70;0.50;;;;;;;;;;5084962;28;20042;-67
2021/05/19 09:12:11;;;;;;;0.55;0.30;;;;;;;;;;5074331;28;20032;-66
2021/05/19 09:14:42;;;;;;;0.22;0.22;;;;;;;;;;5084743;28;20078;-69
2021/05/19 09:17:35;;;;;;;0.30;0.30;;;;;;;;;;5077384;28;20012;-68
2021/05/19 09:20:04;;;;;;;0.40;0.40;;;;;;;;;;5073732;28;20082;-67
2021/05/19 09:22:33;;;;;;;0.73;0.63;;;;;;;;;;5075881;28;20052;-67
2021/05/19 09:25:01;;;;;;;0.77;0.50;;;;;;;;;;5069923;28;20119;-68
2021/05/19 09:27:40;;;;;;;0.40;0.40;;;;;;;;;;5072187;28;20036;-68
2021/05/19 09:30:07;;;;;;;0.32;0.25;;;;;;;;;;5078695;28;20024;-67
2021/05/19 09:32:37;;;;;;;0.50;0.50;;;;;;;;;;5078141;28;20130;-68
2021/05/19 09:35:03;;;;;;;0.52;0.50;;;;;;;;;;5071179;28;20093;-67
2021/05/19 09:37:34;;;;;;;0.50;0.50;;;;;;;;;;5071006;28;20032;-67
2021/05/19 09:40:03;;;;;;;0.30;0.30;;;;;;;;;;5072800;28;20474;-68
2021/05/19 09:42:41;;;;;;;0.22;0.22;;;;;;;;;;5085921;28;20062;-68
2021/05/19 09:45:29;;;;;;;0.30;0.30;;;;;;;;;;5076892;28;20028;-67
2021/05/19 09:47:56;;;;;;;0.40;0.40;;;;;;;;;;5075057;28;20530;-68
2021/05/19 09:50:23;;;;;;;0.50;0.50;;;;;;;;;;5080308;28;20059;-68
2021/05/19 09:53:04;;;;;;;0.98;0.40;;;;;;;;;;5080640;28;20394;-68
2021/05/19 09:55:30;;;;;;;0.82;0.52;;;;;;;;;;5078937;28;20028;-66
2021/05/19 09:57:56;;;;;;;1.75;0.40;;;;;;;;;;5087914;28;20063;-68
2021/05/19 10:00:23;;;;;;;0.60;0.43;;;;;;;;;;5081525;28;20074;-66
2021/05/19 10:02:50;;;;;;;0.32;0.32;;;;;;;;;;5079975;28;20032;-69
2021/05/19 10:05:23;;;;;;;0.32;0.20;;;;;;;;;;5079772;28;20059;-69
2021/05/19 10:07:49;;;;;;;0.32;0.32;;;;;;;;;;5079279;28;20067;-67
2021/05/19 10:10:16;;;;;;;0.77;0.57;;;;;;;;;;5079637;28;20489;-68
2021/05/19 10:12:42;;;;;;;1.65;0.73;;;;;;;;;;5079341;28;20408;-68
2021/05/19 10:15:13;;;;;;;0.63;0.63;;;;;;;;;;5078181;28;20067;-68
2021/05/19 10:17:41;;;;;;;1.55;0.85;;;;;;;;;;5076901;28;20036;-68
2021/05/19 10:20:08;;;;;;;1.02;0.57;;;;;;;;;;5087792;28;20046;-67
2021/05/19 10:22:36;;;;;;;0.40;0.40;;;;;;;;;;5079403;28;20074;-68
2021/05/19 10:25:20;;;;;;;0.50;0.43;;;;;;;;;;5079626;28;20481;-68
2021/05/19 10:27:56;;;;;;;0.43;0.43;;;;;;;;;;5077237;28;20578;-70
2021/05/19 10:30:41;;;;;;;2.67;1.02;;;;;;;;;;5085091;28;20021;-68
2021/05/19 10:33:08;;;;;;;0.55;0.50;;;;;;;;;;5083787;28;20540;-65
2021/05/19 10:35:38;;;;;;;0.52;0.52;;;;;;;;;;5078718;28;20493;-73
2021/05/19 10:38:35;;;;;;;3.83;0.50;;;;;;;;;;5088334;28;20074;-69
2021/05/19 10:41:02;;;;;;;1.98;1.00;;;;;;;;;;5077216;28;20040;-70
2021/05/19 10:43:45;;;;;;;1.67;1.08;;;;;;;;;;5074844;28;20542;-69
2021/05/19 10:46:13;;;;;;;0.82;0.73;;;;;;;;;;5089543;28;20042;-70
2021/05/19 10:48:39;;;;;;;3.83;0.75;;;;;;;;;;5080763;28;20067;-70
2021/05/19 10:51:25;;;;;;;2.00;0.93;;;;;;;;;;5071295;28;20041;-69
2021/05/19 10:57:30;;;;;;;0.65;0.65;;;;;;;;;;5062455;28;20036;-69
2021/05/19 11:03:02;;;;;;;3.10;0.85;;;;;;;;;;5082292;28;20462;-70
2021/05/19 11:05:35;;;;;;;2.47;0.90;;;;;;;;;;5076040;28;20423;-70
2021/05/19 11:08:11;;;;;;;3.42;0.88;;;;;;;;;;5074435;28;20055;-69
2021/05/19 11:10:52;;;;;;;1.02;0.80;;;;;;;;;;5082200;28;20562;-70
2021/05/19 11:13:19;;;;;;;3.65;1.10;;;;;;;;;;5084103;28;20040;-71
2021/05/19 11:16:02;;;;;;;2.70;0.90;;;;;;;;;;5087589;28;20024;-70
2021/05/19 11:18:57;;;;;;;5.25;1.10;;;;;;;;;;5081844;28;20020;-71
2021/05/19 11:21:21;;;;;;;6.28;1.30;;;;;;;;;;5089035;28;20040;-70
2021/05/19 11:24:09;;;;;;;3.22;1.08;;;;;;;;;;5082437;28;20486;-69
2021/05/19 11:26:37;;;;;;;2.92;1.10;;;;;;;;;;5077269;28;20024;-70
2021/05/19 11:29:03;;;;;;;3.75;1.10;;;;;;;;;;5072653;28;20029;-70
2021/05/19 11:31:33;;;;;;;3.13;1.00;;;;;;;;;;5083790;28;20032;-70
2021/05/19 11:34:03;;;;;;;3.03;0.90;;;;;;;;;;5078062;28;20040;-69
2021/05/19 11:36:30;;;;;;;5.35;1.05;;;;;;;;;;5071430;28;20074;-69
2021/05/19 11:38:56;;;;;;;;;;;;;;;;;;5075314;28;20062;-70
2021/05/19 11:41:22;;;;;;;5.40;1.43;;;;;;;;;;5076192;28;20037;-70
2021/05/19 11:43:49;;;;;;;5.93;1.60;;;;;;;;;;5087551;28;20035;-69
2021/05/19 11:46:14;;;;;;;11.90;1.58;;;;;;;;;;5080053;28;20644;-69
2021/05/19 11:48:43;;;;;;;4.00;1.25;;;;;;;;;;5076936;28;20058;-71
2021/05/19 11:51:21;;;;;;;8.25;1.52;;;;;;;;;;5076383;28;20111;-71
2021/05/19 11:53:54;;;;;;;7.15;1.50;;;;;;;;;;5078375;28;20115;-71
2021/05/19 11:56:20;;;;;;;3.45;1.42;;;;;;;;;;5076578;28;20577;-71
2021/05/19 11:58:46;;;;;;;6.05;1.35;;;;;;;;;;5077645;28;20106;-72
2021/05/19 12:01:14;;;;;;;4.78;1.75;;;;;;;;;;5073237;28;20364;-71
2021/05/19 12:03:40;;;;;;;6.07;1.40;;;;;;;;;;5074967;28;20228;-72
2021/05/19 12:06:07;;;;;;;3.53;1.40;;;;;;;;;;5075551;28;20424;-71
2021/05/19 12:08:37;;;;;;;5.25;1.13;;;;;;;;;;5074020;28;20155;-71
2021/05/19 12:11:17;;;;;;;2.95;1.15;;;;;;;;;;5075693;28;20032;-71
2021/05/19 12:13:45;;;;;;;3.95;1.40;;;;;;;;;;5066815;28;20052;-71
2021/05/19 12:16:16;;;;;;;4.50;1.42;;;;;;;;;;5077802;28;20070;-71
2021/05/19 12:18:56;;;;;;;6.88;1.60;;;;;;;;;;5076518;28;20024;-71
2021/05/19 12:21:22;;;;;;;9.80;1.48;;;;;;;;;;5075644;28;20035;-71
2021/05/19 12:23:49;;;;;;;6.43;1.58;;;;;;;;;;5073996;28;20487;-71
2021/05/19 12:26:15;;;;;;;5.20;1.63;;;;;;;;;;5069593;28;20036;-71
2021/05/19 12:28:41;;;;;;;3.55;1.25;;;;;;;;;;5077126;28;20107;-71
2021/05/19 12:31:07;;;;;;;2.53;1.33;;;;;;;;;;5076078;28;20024;-71
2021/05/19 12:33:45;;;;;;;3.83;1.40;;;;;;;;;;5081077;28;20086;-70
2021/05/19 12:36:27;;;;;;;7.05;1.52;;;;;;;;;;5083453;28;20354;-70
2021/05/19 12:38:56;;;;;;;4.90;1.40;;;;;;;;;;5085782;28;20436;-71
2021/05/19 12:41:44;;;;;;;5.03;1.40;;;;;;;;;;5085134;28;20034;-69
2021/05/19 12:44:15;;;;;;;3.92;1.17;;;;;;;;;;5080892;28;20058;-71
2021/05/19 12:46:41;;;;;;;3.72;1.40;;;;;;;;;;5077280;28;20047;-71
2021/05/19 12:49:10;;;;;;;2.45;1.20;;;;;;;;;;5087852;28;20032;-71
2021/05/19 12:51:49;;;;;;;5.50;1.40;;;;;;;;;;5086320;28;20032;-69
2021/05/19 12:54:26;;;;;;;3.80;1.50;;;;;;;;;;5078521;28;20481;-71
2021/05/19 12:57:03;;;;;;;4.45;1.50;;;;;;;;;;5082884;28;20058;-70
2021/05/19 12:59:29;;;;;;;6.50;1.60;;;;;;;;;;5079168;28;20085;-70
2021/05/19 13:01:56;;;;;;;4.32;1.23;;;;;;;;;;5074820;28;20025;-70
2021/05/19 13:04:23;;;;;;;5.20;1.17;;;;;;;;;;5079784;28;20093;-69
2021/05/19 13:06:54;;;;;;;9.57;1.48;;;;;;;;;;5078845;28;20036;-69
2021/05/19 13:09:28;;;;;;;7.30;1.45;;;;;;;;;;5085696;28;20115;-71
2021/05/19 13:12:10;;;;;;;5.20;1.30;;;;;;;;;;5086602;28;20028;-72
2021/05/19 13:14:39;;;;;;;5.32;1.50;;;;;;;;;;5082217;28;20044;-72
2021/05/19 13:17:23;;;;;;;8.15;1.65;;;;;;;;;;5082950;28;20036;-72
2021/05/19 13:20:06;;;;;;;5.15;1.35;;;;;;;;;;5072817;28;20043;-70
2021/05/19 13:22:32;;;;;;;4.05;1.40;;;;;;;;;;5078041;28;20024;-69
2021/05/19 13:24:58;;;;;;;4.00;1.37;;;;;;;;;;5074073;28;20162;-70
2021/05/19 13:27:28;;;;;;;6.20;1.90;;;;;;;;;;5077899;28;20044;-69
2021/05/19 13:29:55;;;;;;;4.40;1.40;;;;;;;;;;5079162;28;20270;-71
2021/05/19 13:32:33;;;;;;;9.57;1.92;;;;;;;;;;5077978;28;20107;-73
2021/05/19 13:37:55;;;;;;;6.10;1.55;;;;;;;;;;5087857;28;20093;-73
2021/05/19 13:40:22;;;;;;;4.10;1.58;;;;;;;;;;5080517;28;20028;-72
2021/05/19 13:42:48;;;;;;;4.93;1.27;;;;;;;;;;5081252;28;20020;-72
2021/05/19 13:45:14;;;;;;;9.20;1.83;;;;;;;;;;5079207;28;20067;-73
2021/05/19 13:47:40;;;;;;;4.38;1.40;;;;;;;;;;5082804;28;20119;-71
2021/05/19 13:50:07;;;;;;;8.65;1.70;;;;;;;;;;5078788;28;20028;-71
2021/05/19 13:52:33;;;;;;;4.85;1.48;;;;;;;;;;5080811;28;20024;-70
2021/05/19 13:55:01;;;;;;;10.17;1.63;;;;;;;;;;5075548;28;20032;-71
2021/05/19 13:57:27;;;;;;;5.60;1.30;;;;;;;;;;5083199;28;20302;-70
2021/05/19 13:59:54;;;;;;;5.85;1.50;;;;;;;;;;5074051;28;20035;-69
2021/05/19 14:02:20;;;;;;;5.43;1.45;;;;;;;;;;5077580;28;20020;-69
2021/05/19 14:04:46;;;;;;;3.50;1.20;;;;;;;;;;5074746;28;20035;-70
2021/05/19 14:07:12;;;;;;;3.57;1.07;;;;;;;;;;5081228;28;20028;-68
2021/05/19 14:09:38;;;;;;;4.25;1.13;;;;;;;;;;5082341;28;20348;-68
2021/05/19 14:12:53;;;;;;;5.25;1.42;;;;;;;;;;5077363;28;20292;-68
2021/05/19 14:20:11;;;;;;;4.60;1.37;;;;;;;;;;5083110;28;20032;-68
2021/05/19 14:28:06;;;;;;;4.05;1.40;;;;;;;;;;5084194;28;20078;-68
2021/05/19 14:30:33;;;;;;;10.87;1.37;;;;;;;;;;5090829;28;20043;-70
2021/05/19 14:32:59;;;;;;;2.50;1.13;;;;;;;;;;5077722;28;20274;-68
2021/05/19 15:01:42;;;;;;;2.70;1.00;;;;;;;;;;5087543;28;20479;-69
2021/05/19 15:04:08;;;;;;;3.78;1.10;;;;;;;;;;5087205;28;20115;-70
2021/05/19 15:06:34;;;;;;;5.63;1.20;;;;;;;;;;5082921;28;20137;-68
2021/05/19 15:09:00;;;;;;;11.83;1.40;;;;;;;;;;5080028;28;20051;-70
2021/05/19 15:11:26;;;;;;;1.27;1.17;;;;;;;;;;5081189;28;20024;-74
2021/05/19 15:13:52;;;;;;;;;;;;;;;;;;5084002;28;20036;-76
2021/05/19 15:16:18;;;;;;;;;;;;;;;;;;5088057;28;20420;-74
2021/05/19 15:18:44;;;;;;;;;;;;;;;;;;5088664;28;20459;-72
2021/05/19 15:21:10;;;;;;;;;;;;;;;;;;5071489;28;20592;-71
2021/05/19 15:23:36;;;;;;;;;;;;;;;;;;5073042;28;19908;-72
2021/05/19 15:26:02;;;;;;;0.95;0.90;;;;;;;;;;5074573;28;19916;-73
2021/05/19 15:28:28;;;;;;;8.70;1.13;;;;;;;;;;5085892;28;20032;-73
2021/05/19 15:30:55;;;;;;;0.60;0.60;;;;;;;;;;5082145;28;20031;-71
2021/05/19 15:33:22;;;;;;;0.50;0.50;;;;;;;;;;5082097;28;20059;-71
2021/05/19 15:35:48;;;;;;;0.70;0.60;;;;;;;;;;5074484;28;20024;-70
2021/05/19 15:38:14;;;;;;;0.90;0.50;;;;;;;;;;5076390;28;20549;-71
2021/05/19 15:40:41;;;;;;;0.57;0.50;;;;;;;;;;5077308;28;20028;-71
2021/05/19 15:43:07;;;;;;;0.60;0.60;;;;;;;;;;5072298;28;20020;-71